createdAt,value
2023-03-04T00:01:38.701Z,4.00
2023-03-04T00:04:11.382Z,4.04
2023-03-04T00:06:42.525Z,4.15
2023-03-04T00:09:15.356Z,4.12
2023-03-04T00:11:45.263Z,4.12
2023-03-04T00:14:12.010Z,4.08
2023-03-04T00:16:38.968Z,4.12
2023-03-04T00:19:09.687Z,4.12
2023-03-04T00:21:36.483Z,4.06
2023-03-04T00:24:09.910Z,4.11
2023-03-04T00:26:36.653Z,4.08
2023-03-04T00:29:03.405Z,4.03
2023-03-04T00:31:36.333Z,3.95
2023-03-04T00:34:03.441Z,3.92
2023-03-04T00:36:30.278Z,4.07
2023-03-04T00:38:57.008Z,4.22
2023-03-04T00:41:23.638Z,4.29
2023-03-04T00:43:53.094Z,4.41
2023-03-04T00:46:19.803Z,4.40
2023-03-04T00:48:49.120Z,4.36
2023-03-04T00:51:15.933Z,4.45
2023-03-04T00:53:46.037Z,4.52
2023-03-04T00:56:15.649Z,4.61
2023-03-04T00:58:45.542Z,4.52
2023-03-04T01:01:12.365Z,4.55
2023-03-04T01:03:47.764Z,4.63
2023-03-04T01:06:18.890Z,4.59
2023-03-04T01:08:45.956Z,4.61
2023-03-04T01:11:32.263Z,4.51
2023-03-04T01:14:04.974Z,4.58
2023-03-04T01:16:35.193Z,4.67
2023-03-04T01:21:48.923Z,4.67
2023-03-04T01:24:24.821Z,4.76
2023-03-04T01:27:12.721Z,4.77
2023-03-04T01:29:43.341Z,4.68
2023-03-04T01:32:13.133Z,4.61
2023-03-04T01:34:42.516Z,4.71
2023-03-04T01:37:20.914Z,4.58
2023-03-04T01:39:50.234Z,4.52
2023-03-04T01:42:23.300Z,4.45
2023-03-04T01:44:57.481Z,4.48
2023-03-04T01:47:33.299Z,4.50
2023-03-04T01:50:12.587Z,4.56
2023-03-04T01:52:51.085Z,4.48
2023-03-04T01:55:22.687Z,4.36
2023-03-04T01:57:52.606Z,4.26
2023-03-04T02:00:35.165Z,4.21
2023-03-04T02:03:15.607Z,4.25
2023-03-04T02:05:51.943Z,4.17
2023-03-04T02:08:23.837Z,4.35
2023-03-04T02:10:59.920Z,4.48
2023-03-04T02:13:27.162Z,4.44
2023-03-04T02:15:55.918Z,4.59
2023-03-04T02:18:24.729Z,4.65
2023-03-04T02:21:30.774Z,4.58
2023-03-04T02:24:35.038Z,4.59
2023-03-04T02:27:01.926Z,4.60
2023-03-04T02:29:29.589Z,4.53
2023-03-04T02:31:56.905Z,4.74
2023-03-04T02:34:54.459Z,4.70
2023-03-04T02:37:21.972Z,4.72
2023-03-04T02:39:50.307Z,4.63
2023-03-04T02:42:18.553Z,4.74
2023-03-04T02:44:50.336Z,4.73
2023-03-04T02:47:19.103Z,4.66
2023-03-04T02:49:48.567Z,4.74
2023-03-04T02:52:26.576Z,4.69
2023-03-04T02:54:59.488Z,4.71
2023-03-04T02:57:30.559Z,4.72
2023-03-04T02:59:57.282Z,4.65
2023-03-04T03:02:35.876Z,4.72
2023-03-04T03:05:03.003Z,4.69
2023-03-04T03:07:38.000Z,4.70
2023-03-04T03:10:05.753Z,4.73
2023-03-04T03:12:32.489Z,4.80
2023-03-04T03:15:01.756Z,4.84
2023-03-04T03:17:28.665Z,4.74
2023-03-04T03:19:55.413Z,4.71
2023-03-04T03:22:25.956Z,4.70
2023-03-04T03:24:52.853Z,4.76
2023-03-04T03:27:19.496Z,4.72
2023-03-04T03:29:46.206Z,4.79
2023-03-04T03:32:15.964Z,4.59
2023-03-04T03:34:50.863Z,4.56
2023-03-04T03:37:23.327Z,4.42
2023-03-04T03:39:53.009Z,4.45
2023-03-04T03:42:31.961Z,4.56
2023-03-04T03:45:14.448Z,4.56
2023-03-04T03:47:49.107Z,4.48
2023-03-04T03:50:26.259Z,4.53
2023-03-04T03:53:05.937Z,4.41
2023-03-04T03:55:32.963Z,4.54
2023-03-04T03:58:01.753Z,4.46
2023-03-04T04:00:30.727Z,4.48
2023-03-04T04:03:03.595Z,4.54
2023-03-04T04:05:38.668Z,4.33
2023-03-04T04:08:05.664Z,4.39
2023-03-04T04:10:35.442Z,4.32
2023-03-04T04:13:04.550Z,4.22
2023-03-04T04:15:31.257Z,4.26
2023-03-04T04:17:58.005Z,4.36
2023-03-04T04:20:36.148Z,4.34
2023-03-04T04:23:07.676Z,4.27
2023-03-04T04:25:34.529Z,4.25
2023-03-04T04:28:01.314Z,4.18
2023-03-04T04:30:28.091Z,4.12
2023-03-04T04:33:01.875Z,4.18
2023-03-04T04:35:28.835Z,4.14
2023-03-04T04:37:58.212Z,4.08
2023-03-04T04:40:28.098Z,3.92
2023-03-04T04:43:20.615Z,3.83
2023-03-04T04:45:47.570Z,4.00
2023-03-04T04:48:21.113Z,3.92
2023-03-04T04:51:06.421Z,3.96
2023-03-04T04:53:33.293Z,4.00
2023-03-04T04:56:30.069Z,4.03
2023-03-04T04:59:18.752Z,4.05
2023-03-04T05:01:51.109Z,3.95
2023-03-04T05:04:25.521Z,3.90
2023-03-04T05:06:52.267Z,4.00
2023-03-04T05:09:25.397Z,3.90
2023-03-04T05:11:52.130Z,3.99
2023-03-04T05:14:22.330Z,3.83
2023-03-04T05:16:49.038Z,3.78
2023-03-04T05:19:21.372Z,3.86
2023-03-04T05:21:50.975Z,3.84
2023-03-04T05:24:17.917Z,3.81
2023-03-04T05:26:44.771Z,3.87
2023-03-04T05:29:11.737Z,3.91
2023-03-04T05:31:52.536Z,3.86
2023-03-04T05:34:24.315Z,3.85
2023-03-04T05:36:51.400Z,3.75
2023-03-04T05:39:31.211Z,3.75
2023-03-04T05:41:58.048Z,3.68
2023-03-04T05:44:24.892Z,3.74
2023-03-04T05:46:53.987Z,3.54
2023-03-04T05:49:30.897Z,3.69
2023-03-04T05:52:23.129Z,3.60
2023-03-04T05:54:51.215Z,3.64
2023-03-04T05:57:26.891Z,3.56
2023-03-04T05:59:59.653Z,3.60
2023-03-04T06:02:29.640Z,3.49
2023-03-04T06:05:02.502Z,3.72
2023-03-04T06:07:38.509Z,3.68
2023-03-04T06:54:35.501Z,3.64
2023-03-04T07:35:24.443Z,3.96
2023-03-04T07:37:51.337Z,4.02
2023-03-04T07:40:30.486Z,4.07
2023-03-04T07:43:09.448Z,4.12
2023-03-04T07:45:42.085Z,4.15
2023-03-04T07:48:08.947Z,4.04
2023-03-04T07:50:35.669Z,4.13
2023-03-04T07:53:07.308Z,4.10
2023-03-04T07:55:34.261Z,4.01
2023-03-04T07:58:02.629Z,4.13
2023-03-04T08:00:33.820Z,4.02
2023-03-04T08:03:03.591Z,3.98
2023-03-04T08:05:44.456Z,4.03
2023-03-04T08:11:01.384Z,4.04
2023-03-04T08:13:38.141Z,4.13
2023-03-04T08:16:11.730Z,4.10
2023-03-04T08:18:48.556Z,4.17
2023-03-04T08:21:25.336Z,4.06
2023-03-04T08:23:52.580Z,4.20
2023-03-04T08:26:51.635Z,4.22
2023-03-04T08:29:33.689Z,4.16
2023-03-04T08:32:15.755Z,4.17
2023-03-04T08:34:53.519Z,4.18
2023-03-04T08:37:23.671Z,4.23
2023-03-04T08:39:56.717Z,4.20
2023-03-04T08:42:38.803Z,4.26
2023-03-04T08:45:08.982Z,4.27
2023-03-04T08:47:40.682Z,4.35
2023-03-04T08:50:11.534Z,4.34
2023-03-04T08:52:53.659Z,4.50
2023-03-04T08:59:56.055Z,4.64
2023-03-04T09:02:41.174Z,4.56
2023-03-04T09:05:19.699Z,4.47
2023-03-04T09:07:52.209Z,4.47
2023-03-04T09:11:27.963Z,4.37
2023-03-04T09:14:10.164Z,4.28
2023-03-04T09:16:37.006Z,4.29
2023-03-04T09:19:15.405Z,4.38
2023-03-04T09:21:55.830Z,4.38
2023-03-04T09:24:26.957Z,4.45
2023-03-04T09:26:57.188Z,4.47
2023-03-04T09:29:54.781Z,4.54
2023-03-04T11:38:47.837Z,6.25
2023-03-04T12:44:20.740Z,9.24
2023-03-04T12:47:50.549Z,9.83
2023-03-04T12:50:38.524Z,10.59
2023-03-04T12:53:45.557Z,10.89
2023-03-04T12:56:50.630Z,11.04
2023-03-04T12:59:23.806Z,10.40
2023-03-04T13:02:07.362Z,10.08
2023-03-04T13:05:19.680Z,9.70
2023-03-04T13:08:06.724Z,10.58
2023-03-04T13:10:42.245Z,10.97
2023-03-04T13:13:42.896Z,11.07
2023-03-04T13:16:22.205Z,11.29
2023-03-04T13:18:49.421Z,11.71
2023-03-04T13:21:32.332Z,11.85
2023-03-04T13:24:50.214Z,12.06
2023-03-04T13:28:18.433Z,11.69
2023-03-04T13:31:01.162Z,10.48
2023-03-04T13:33:27.813Z,10.48
2023-03-04T13:36:01.986Z,10.76
2023-03-04T13:38:30.741Z,11.45
2023-03-04T13:41:12.151Z,12.24
2023-03-04T13:44:26.142Z,11.91
2023-03-04T13:46:52.982Z,12.07
2023-03-04T13:49:25.388Z,12.00
2023-03-04T13:51:52.850Z,11.74
2023-03-04T13:54:19.572Z,11.51
2023-03-04T13:57:22.500Z,11.24
2023-03-04T14:00:00.999Z,10.24
2023-03-04T14:02:35.060Z,10.92
2023-03-04T14:05:07.380Z,11.50
2023-03-04T14:07:37.494Z,10.96
2023-03-04T14:10:12.244Z,11.13
2023-03-04T14:12:54.182Z,11.40
2023-03-04T14:15:35.513Z,11.54
2023-03-04T14:18:22.845Z,11.21
2023-03-04T14:21:03.590Z,11.73
2023-03-04T14:23:36.302Z,12.15
2023-03-04T14:26:17.720Z,12.70
2023-03-04T14:28:56.654Z,13.18
2023-03-04T14:31:38.600Z,12.43
2023-03-04T14:34:33.610Z,10.79
2023-03-04T14:37:03.710Z,9.20
2023-03-04T14:39:37.086Z,8.50
2023-03-04T14:42:26.876Z,7.88
2023-03-04T14:45:08.213Z,7.34
2023-03-04T14:47:52.256Z,6.95
2023-03-04T14:50:21.909Z,6.58
2023-03-04T14:53:11.289Z,6.31
2023-03-04T14:55:38.135Z,5.94
2023-03-04T14:58:28.196Z,5.84
2023-03-04T15:01:14.948Z,5.75
2023-03-04T15:03:57.110Z,5.50
2023-03-04T15:06:30.146Z,5.52
2023-03-04T15:09:25.139Z,5.44
2023-03-04T15:12:10.360Z,5.28
2023-03-04T15:15:00.708Z,5.10
2023-03-04T15:17:47.524Z,5.08
2023-03-04T15:20:30.233Z,5.04
2023-03-04T15:23:07.329Z,5.00
2023-03-04T15:25:36.171Z,4.95
2023-03-04T15:28:04.601Z,4.98
2023-03-04T15:30:41.998Z,4.95
2023-03-04T15:33:14.695Z,4.83
2023-03-04T15:36:18.771Z,4.76
2023-03-04T15:38:51.633Z,4.71
2023-03-04T15:41:28.259Z,4.65
2023-03-04T15:43:55.366Z,4.51
2023-03-04T15:46:23.133Z,4.41
2023-03-04T15:48:50.228Z,4.33
2023-03-04T15:51:23.890Z,4.26
2023-03-04T15:53:56.998Z,4.21
2023-03-04T15:56:31.005Z,4.10
2023-03-04T15:59:22.603Z,4.00
2023-03-04T16:01:52.417Z,3.89
2023-03-04T16:04:23.166Z,3.80
2023-03-04T16:06:52.891Z,3.69
2023-03-04T16:09:21.644Z,3.68
2023-03-04T16:11:48.589Z,3.69
2023-03-04T16:14:17.194Z,3.67
2023-03-04T16:16:44.648Z,3.62
2023-03-04T16:19:17.208Z,3.51
2023-03-04T16:21:44.024Z,3.50
2023-03-04T16:24:21.929Z,3.40
2023-03-04T16:26:52.107Z,3.35
2023-03-04T16:29:18.754Z,3.28
2023-03-04T16:31:48.453Z,3.23
2023-03-04T16:34:15.159Z,3.17
2023-03-04T16:36:42.225Z,3.13
2023-03-04T16:39:23.097Z,3.04
2023-03-04T16:41:55.005Z,3.00
2023-03-04T16:44:21.751Z,2.94
2023-03-04T16:46:53.168Z,2.87
2023-03-04T16:49:19.869Z,2.87
2023-03-04T16:51:51.081Z,2.76
2023-03-04T16:54:30.493Z,2.71
2023-03-04T16:56:59.454Z,2.67
2023-03-04T16:59:29.519Z,2.63
2023-03-04T17:01:56.893Z,2.63
2023-03-04T17:04:31.765Z,2.61
2023-03-04T17:06:58.514Z,2.58
2023-03-04T17:09:25.196Z,2.56
2023-03-04T17:11:53.105Z,2.53
2023-03-04T19:06:47.939Z,2.20
2023-03-04T19:50:14.708Z,1.77
2023-03-04T19:52:44.585Z,1.70
2023-03-04T19:55:14.781Z,1.63
2023-03-04T19:57:44.670Z,1.70
2023-03-04T20:00:23.410Z,1.72
2023-03-04T20:02:50.691Z,1.66
2023-03-04T20:05:23.252Z,1.53
2023-03-04T20:07:49.940Z,1.56
2023-03-04T20:10:22.885Z,1.52
2023-03-04T20:12:49.617Z,1.53
2023-03-04T20:15:16.244Z,1.51
2023-03-04T20:17:51.765Z,1.36
2023-03-04T20:20:19.067Z,1.32
2023-03-04T20:22:47.280Z,1.28
2023-03-04T20:25:14.021Z,1.36
2023-03-04T20:27:43.782Z,1.18
2023-03-04T20:30:13.196Z,1.12
2023-03-04T20:32:43.397Z,1.16
2023-03-04T20:35:14.081Z,1.09
2023-03-04T20:37:47.205Z,1.10
2023-03-04T20:40:15.122Z,1.06
2023-03-04T20:42:48.029Z,0.96
2023-03-04T20:45:14.853Z,0.90
2023-03-04T20:47:44.873Z,0.79
2023-03-04T20:50:12.022Z,0.64
2023-03-04T20:52:47.788Z,0.59
2023-03-04T20:55:14.769Z,0.38
2023-03-04T20:58:04.244Z,0.23
2023-03-04T21:00:42.278Z,0.01
2023-03-04T21:03:12.221Z,-0.13
2023-03-04T21:05:38.968Z,-0.28
2023-03-04T21:08:06.217Z,-0.31
2023-03-04T21:10:35.975Z,-0.35
2023-03-04T21:13:02.711Z,-0.40
2023-03-04T21:15:29.381Z,-0.44
2023-03-04T21:17:56.050Z,-0.46
2023-03-04T21:20:23.131Z,-0.57
2023-03-04T21:22:49.766Z,-0.61
2023-03-04T21:25:18.257Z,-0.68
2023-03-04T21:27:44.929Z,-0.61
2023-03-04T21:30:20.437Z,-0.54
2023-03-04T21:32:52.447Z,-0.48
2023-03-04T21:35:20.107Z,-0.47
2023-03-04T21:37:47.155Z,-0.36
2023-03-04T21:40:13.843Z,-0.37
2023-03-04T21:42:46.341Z,-0.35
2023-03-04T21:45:16.351Z,-0.32
2023-03-04T21:47:46.358Z,-0.20
2023-03-04T21:50:17.962Z,-0.04
2023-03-04T21:52:46.966Z,-0.02
2023-03-04T21:55:16.085Z,0.17
2023-03-04T21:57:48.241Z,0.22
2023-03-04T22:00:16.732Z,0.27
2023-03-04T22:02:46.221Z,0.31
2023-03-04T22:05:18.741Z,0.36
2023-03-04T22:07:45.800Z,0.36
2023-03-04T22:10:16.235Z,0.37
2023-03-04T22:12:46.181Z,0.27
2023-03-04T22:15:15.317Z,0.12
2023-03-04T22:17:45.953Z,0.08
2023-03-04T22:20:19.287Z,0.12
2023-03-04T22:22:49.191Z,0.23
2023-03-04T22:25:15.913Z,0.25
2023-03-04T22:27:42.664Z,0.26
2023-03-04T22:30:10.616Z,0.30
2023-03-04T22:32:37.360Z,0.35
2023-03-04T22:35:04.731Z,0.36
2023-03-04T22:37:34.462Z,0.39
2023-03-04T22:40:02.153Z,0.46
2023-03-04T22:42:28.873Z,0.43
2023-03-04T22:44:55.994Z,0.54
2023-03-04T22:47:22.772Z,0.59
2023-03-04T22:49:49.663Z,0.60
2023-03-04T22:52:16.752Z,0.64
2023-03-04T22:54:48.241Z,0.67
2023-03-04T22:57:21.391Z,0.68
2023-03-04T22:59:48.878Z,0.69
2023-03-04T23:02:16.503Z,0.85
2023-03-04T23:04:43.162Z,0.88
2023-03-04T23:07:09.866Z,0.91
2023-03-04T23:09:36.648Z,0.86
2023-03-04T23:12:03.719Z,0.86
2023-03-04T23:14:30.451Z,0.89
2023-03-04T23:16:57.228Z,0.83
2023-03-04T23:19:23.929Z,0.88
2023-03-04T23:21:50.594Z,0.86
2023-03-04T23:24:17.512Z,0.89
2023-03-04T23:26:46.035Z,0.86
2023-03-04T23:29:17.121Z,0.89
2023-03-04T23:31:44.561Z,0.87
2023-03-04T23:34:14.316Z,0.80
2023-03-04T23:36:52.858Z,0.69
2023-03-04T23:39:19.886Z,0.54
2023-03-04T23:41:51.754Z,0.41
2023-03-04T23:44:18.482Z,0.29
2023-03-04T23:46:45.388Z,0.16
2023-03-04T23:49:18.006Z,0.16
2023-03-04T23:51:48.157Z,0.12
2023-03-04T23:54:15.523Z,0.08
2023-03-04T23:56:45.327Z,0.06
2023-03-04T23:59:15.961Z,-0.07
